Time;durP1;ratioP1;P1;durP2;ratioP2;P2;SDS_P1;SDS_P2;PMS_P1;PMS_P2;Temp;Humidity;BMP_temperature;BMP_pressure;BME280_temperature;BME280_humidity;BME280_pressure;Samples;Min_cycle;Max_cycle;Signal;HPM_P1;HPM_P2
2023/12/02 00:00:34;;;;;;;31.92;15.18;;;;;;;-0.60;100.00;99407.38;4994061;28;20069;-80
2023/12/02 00:02:59;;;;;;;33.67;17.38;;;;;;;-0.58;100.00;99414.13;5027278;28;20031;-80
2023/12/02 00:05:25;;;;;;;34.47;16.02;;;;;;;-0.61;100.00;99400.97;5028226;28;20034;-81
2023/12/02 00:07:52;;;;;;;32.13;14.98;;;;;;;-0.50;100.00;99429.56;5028291;28;20080;-82
2023/12/02 00:10:18;;;;;;;36.92;15.05;;;;;;;-0.50;100.00;99432.38;4996930;28;20431;-81
2023/12/02 00:12:43;;;;;;;28.40;14.32;;;;;;;-0.52;100.00;99436.84;4995263;28;20030;-79
2023/12/02 00:15:09;;;;;;;31.38;15.38;;;;;;;-0.66;100.00;99418.34;4998348;28;20420;-81
2023/12/02 00:17:41;;;;;;;34.40;16.40;;;;;;;-0.76;100.00;99400.53;5002092;28;20475;-81
2023/12/02 00:20:08;;;;;;;37.80;16.00;;;;;;;-0.70;100.00;99410.00;5004899;28;20102;-81
2023/12/02 00:22:36;;;;;;;38.63;15.95;;;;;;;-0.58;100.00;99421.75;5002008;28;20106;-83
2023/12/02 00:25:06;;;;;;;39.00;18.05;;;;;;;-0.70;100.00;99409.22;5000504;28;20026;-80
2023/12/02 00:27:32;;;;;;;40.30;18.42;;;;;;;-0.64;100.00;99426.31;5008942;28;20026;-81
2023/12/02 00:29:59;;;;;;;41.42;18.58;;;;;;;-0.65;100.00;99430.34;5007786;28;20034;-81
2023/12/02 00:32:25;;;;;;;41.58;20.00;;;;;;;-0.68;100.00;99418.00;5006120;28;20041;-80
2023/12/02 00:34:52;;;;;;;46.75;20.80;;;;;;;-0.66;100.00;99423.16;4995364;28;20038;-80
2023/12/02 00:37:20;;;;;;;47.67;20.48;;;;;;;-0.67;100.00;99433.59;5027511;28;20089;-80
2023/12/02 00:39:46;;;;;;;49.13;22.70;;;;;;;-0.76;100.00;99436.22;4996260;28;20057;-79
2023/12/02 00:42:12;;;;;;;52.72;23.85;;;;;;;-0.70;100.00;99440.88;4996022;28;20030;-79
2023/12/02 00:44:39;;;;;;;57.45;24.65;;;;;;;-0.78;100.00;99428.25;4995246;28;20176;-80
2023/12/02 00:47:05;;;;;;;52.55;24.25;;;;;;;-0.70;100.00;99438.06;4996070;28;20045;-79
2023/12/02 00:49:32;;;;;;;49.58;21.60;;;;;;;-0.69;100.00;99436.03;4995710;28;20022;-80
2023/12/02 00:51:58;;;;;;;45.38;22.80;;;;;;;-0.74;100.00;99430.97;4975906;28;20480;-80
2023/12/02 00:54:23;;;;;;;43.92;23.02;;;;;;;-0.75;100.00;99420.97;4975399;28;20039;-80
2023/12/02 00:56:51;;;;;;;50.65;24.55;;;;;;;-0.59;100.00;99439.81;4976742;28;20034;-80
2023/12/02 00:59:18;;;;;;;45.05;21.98;;;;;;;-0.63;100.00;99433.50;4976235;28;20031;-81
2023/12/02 01:01:45;;;;;;;43.70;22.23;;;;;;;-0.66;100.00;99428.75;4975756;28;20084;-79
2023/12/02 01:04:12;;;;;;;43.58;22.05;;;;;;;-0.67;100.00;99424.41;4980455;28;20039;-81
2023/12/02 01:06:37;;;;;;;52.85;20.95;;;;;;;-0.48;100.00;99443.94;4956594;28;20037;-80
2023/12/02 01:09:03;;;;;;;51.13;22.20;;;;;;;-0.61;100.00;99417.81;4965432;28;20383;-81
2023/12/02 01:11:31;;;;;;;43.35;21.65;;;;;;;-0.46;100.00;99435.88;4976396;28;20190;-82
2023/12/02 01:14:04;;;;;;;50.10;22.60;;;;;;;-0.59;100.00;99417.38;4976190;28;20055;-80
2023/12/02 01:16:34;;;;;;;51.97;24.02;;;;;;;-0.66;100.00;99411.94;4981674;28;20105;-81
2023/12/02 01:18:59;;;;;;;47.47;22.65;;;;;;;-0.55;100.00;99424.47;4990902;28;20106;-82
2023/12/02 01:21:28;;;;;;;46.05;22.38;;;;;;;-0.57;100.00;99412.88;4993837;28;20042;-80
2023/12/02 01:23:56;;;;;;;43.35;20.20;;;;;;;-0.49;100.00;99431.13;5004150;28;20054;-80
2023/12/02 01:26:26;;;;;;;43.45;22.48;;;;;;;-0.54;100.00;99417.63;4982333;28;20039;-80
2023/12/02 01:28:58;;;;;;;46.55;23.13;;;;;;;-0.45;100.00;99450.69;4975298;28;20480;-79
2023/12/02 01:31:24;;;;;;;41.67;21.80;;;;;;;-0.46;100.00;99447.09;4974120;28;20057;-79
2023/12/02 01:33:53;;;;;;;56.17;23.20;;;;;;;-0.43;100.00;99431.41;4974511;28;20099;-79
2023/12/02 01:36:18;;;;;;;49.25;22.90;;;;;;;-0.43;100.00;99439.81;4973133;28;20042;-80
2023/12/02 01:38:52;;;;;;;49.40;23.35;;;;;;;-0.53;100.00;99443.69;4974012;28;20085;-80
2023/12/02 01:41:32;;;;;;;51.85;22.80;;;;;;;-0.44;100.00;99443.84;4973894;28;20034;-80
2023/12/02 01:44:01;;;;;;;49.00;23.02;;;;;;;-0.48;100.00;99429.91;4975599;28;20104;-80
2023/12/02 01:46:28;;;;;;;40.25;20.90;;;;;;;-0.48;100.00;99437.53;4977390;28;20031;-79
2023/12/02 01:49:14;;;;;;;50.85;23.67;;;;;;;-0.45;100.00;99445.88;4977539;28;20034;-81
2023/12/02 01:51:40;;;;;;;44.00;21.98;;;;;;;-0.57;100.00;99424.09;4996834;28;20114;-80
2023/12/02 01:54:07;;;;;;;46.85;21.63;;;;;;;-0.48;100.00;99435.53;4989623;28;20467;-81
2023/12/02 01:56:32;;;;;;;42.33;21.80;;;;;;;-0.43;100.00;99431.41;4957449;28;20523;-80
2023/12/02 01:58:59;;;;;;;45.75;22.80;;;;;;;-0.48;100.00;99415.88;4979934;28;20037;-78
2023/12/02 02:01:24;;;;;;;42.33;20.42;;;;;;;-0.48;100.00;99415.88;4993235;28;20390;-79
2023/12/02 02:03:59;;;;;;;42.33;19.83;;;;;;;-0.36;100.00;99431.22;4993919;28;20117;-80
2023/12/02 02:06:25;;;;;;;43.70;20.75;;;;;;;-0.45;100.00;99417.81;4995436;28;20030;-81
2023/12/02 02:08:51;;;;;;;44.90;21.67;;;;;;;-0.36;100.00;99431.22;5038954;28;20047;-80
2023/12/02 02:11:17;;;;;;;45.08;21.02;;;;;;;-0.45;100.00;99414.22;4974897;28;20097;-81
2023/12/02 02:13:44;;;;;;;49.83;22.25;;;;;;;-0.39;100.00;99415.25;4977879;28;20042;-80
2023/12/02 02:16:12;;;;;;;45.67;21.92;;;;;;;-0.41;100.00;99431.72;4994590;28;20093;-80
2023/12/02 02:18:39;;;;;;;40.30;20.55;;;;;;;-0.54;100.00;99400.03;5008731;28;20034;-80
2023/12/02 02:21:07;;;;;;;46.25;20.67;;;;;;;-0.37;100.00;99430.41;4993820;28;20027;-80
2023/12/02 02:23:33;;;;;;;35.85;18.73;;;;;;;-0.36;100.00;99434.81;4993640;28;20114;-80
2023/12/02 02:25:59;;;;;;;43.25;21.30;;;;;;;-0.51;100.00;99415.97;4992302;28;20096;-79
2023/12/02 02:28:27;;;;;;;44.58;20.08;;;;;;;-0.38;100.00;99425.25;4994051;28;20018;-78
2023/12/02 02:30:53;;;;;;;42.90;20.00;;;;;;;-0.44;100.00;99413.00;4991488;28;20034;-80
2023/12/02 02:33:19;;;;;;;41.33;19.42;;;;;;;-0.46;100.00;99410.59;4957317;28;20033;-80
2023/12/02 02:35:59;;;;;;;40.67;19.25;;;;;;;-0.40;100.00;99425.69;4957047;28;20035;-79
2023/12/02 02:38:29;;;;;;;38.28;20.20;;;;;;;-0.46;100.00;99407.00;4979790;28;20030;-80
2023/12/02 02:40:55;;;;;;;38.22;18.52;;;;;;;-0.46;100.00;99419.03;4992542;28;20046;-82
2023/12/02 02:43:23;;;;;;;35.28;17.73;;;;;;;-0.47;100.00;99408.25;4992228;28;20383;-81
2023/12/02 02:45:49;;;;;;;34.20;17.25;;;;;;;-0.50;100.00;99395.88;4993464;28;20031;-80
2023/12/02 02:48:17;;;;;;;31.48;15.68;;;;;;;-0.42;100.00;99408.50;4993103;28;20026;-80
2023/12/02 02:50:50;;;;;;;39.97;17.27;;;;;;;-0.55;100.00;99382.38;4991748;28;20407;-80
2023/12/02 02:53:15;;;;;;;36.05;16.45;;;;;;;-0.59;100.00;99380.91;4993288;28;20034;-80
2023/12/02 02:55:41;;;;;;;31.45;16.15;;;;;;;-0.45;100.00;99402.97;4993104;28;20066;-80
2023/12/02 02:58:07;;;;;;;39.30;16.88;;;;;;;-0.53;100.00;99384.75;4993735;28;20386;-80
2023/12/02 03:00:34;;;;;;;36.97;17.35;;;;;;;-0.45;100.00;99391.75;4995420;28;20128;-80
2023/12/02 03:03:08;;;;;;;37.60;17.80;;;;;;;-0.44;100.00;99394.13;4993626;28;20097;-80
2023/12/02 03:05:37;;;;;;;35.63;18.83;;;;;;;-0.60;100.00;99377.31;4993429;28;20029;-80
2023/12/02 03:08:04;;;;;;;36.22;18.73;;;;;;;-0.53;100.00;99381.97;4994764;28;20029;-80
2023/12/02 03:10:31;;;;;;;38.45;19.30;;;;;;;-0.46;100.00;99402.19;4997083;28;20077;-80
2023/12/02 03:12:57;;;;;;;37.70;18.15;;;;;;;-0.52;100.00;99384.31;4997089;28;20038;-79
2023/12/02 03:15:23;;;;;;;40.58;20.55;;;;;;;-0.49;100.00;99380.63;4977454;28;20043;-80
2023/12/02 03:17:49;;;;;;;41.80;21.75;;;;;;;-0.46;100.00;99378.97;4992491;28;20038;-79
2023/12/02 03:20:17;;;;;;;44.28;21.23;;;;;;;-0.37;100.00;99395.94;4995173;28;20034;-80
2023/12/02 03:22:42;;;;;;;51.20;24.30;;;;;;;-0.42;100.00;99388.84;4997507;28;20038;-82
2023/12/02 03:25:13;;;;;;;59.00;27.15;;;;;;;-0.48;100.00;99373.81;4976472;28;20038;-80
2023/12/02 03:27:41;;;;;;;61.03;28.52;;;;;;;-0.45;100.00;99372.91;4976644;28;20038;-81
2023/12/02 03:30:09;;;;;;;73.00;33.20;;;;;;;-0.41;100.00;99386.84;4993125;28;20050;-80
2023/12/02 03:32:42;;;;;;;68.97;31.98;;;;;;;-0.54;100.00;99369.94;4993975;28;20030;-80
2023/12/02 03:35:09;;;;;;;66.65;32.28;;;;;;;-0.56;100.00;99354.78;4995478;28;20100;-80
2023/12/02 03:37:37;;;;;;;70.78;30.90;;;;;;;-0.60;100.00;99352.06;4997692;28;20140;-80
2023/12/02 03:40:05;;;;;;;74.60;32.90;;;;;;;-0.49;100.00;99357.41;4995530;28;20104;-80
2023/12/02 03:42:30;;;;;;;72.32;32.47;;;;;;;-0.46;100.00;99364.94;5026611;28;20038;-79
2023/12/02 03:44:57;;;;;;;72.15;32.72;;;;;;;-0.52;100.00;99355.50;4995456;28;20153;-79
2023/12/02 03:47:26;;;;;;;69.28;31.92;;;;;;;-0.47;100.00;99369.00;4995417;28;20124;-79
2023/12/02 03:49:52;;;;;;;68.25;31.30;;;;;;;-0.57;100.00;99356.03;4996514;28;20046;-80
2023/12/02 03:52:28;;;;;;;83.25;35.60;;;;;;;-0.41;100.00;99370.78;4996728;28;20152;-80
2023/12/02 03:54:59;;;;;;;83.35;36.88;;;;;;;-0.45;100.00;99386.16;4995391;28;20114;-80
2023/12/02 03:57:25;;;;;;;78.25;35.25;;;;;;;-0.61;100.00;99372.94;4995672;28;20391;-80
2023/12/02 03:59:50;;;;;;;84.18;41.30;;;;;;;-0.46;100.00;99395.78;5010830;28;20120;-81
2023/12/02 04:02:17;;;;;;;88.32;40.88;;;;;;;-0.43;100.00;99387.31;5010986;28;20034;-81
2023/12/02 04:04:45;;;;;;;90.90;40.95;;;;;;;-0.48;100.00;99373.81;4995515;28;20383;-80
2023/12/02 04:07:11;;;;;;;91.07;41.30;;;;;;;-0.47;100.00;99364.13;5011190;28;20034;-82
2023/12/02 04:09:40;;;;;;;99.10;42.95;;;;;;;-0.32;100.00;99387.78;5010545;28;20498;-81
2023/12/02 04:12:07;;;;;;;98.13;44.50;;;;;;;-0.38;100.00;99375.53;4994594;28;20030;-81
2023/12/02 04:14:33;;;;;;;96.88;44.80;;;;;;;-0.40;100.00;99378.00;4994613;28;20498;-81
2023/12/02 04:17:01;;;;;;;103.60;47.15;;;;;;;-0.41;100.00;99382.03;4994805;28;20113;-81
2023/12/02 04:19:27;;;;;;;102.97;47.28;;;;;;;-0.39;100.00;99385.19;4994381;28;20022;-80
2023/12/02 04:21:54;;;;;;;108.45;47.33;;;;;;;-0.37;100.00;99362.28;4995695;28;20034;-80
2023/12/02 04:24:21;;;;;;;107.10;46.95;;;;;;;-0.42;100.00;99368.44;4994762;28;20026;-79
2023/12/02 04:26:47;;;;;;;99.00;44.47;;;;;;;-0.32;100.00;99406.63;4994600;28;20076;-78
2023/12/02 04:29:31;;;;;;;100.47;43.38;;;;;;;-0.44;100.00;99390.53;4994638;28;20022;-79
2023/12/02 04:32:01;;;;;;;95.45;44.40;;;;;;;-0.36;100.00;99389.91;5009575;28;20431;-79
2023/12/02 04:34:27;;;;;;;97.57;45.60;;;;;;;-0.35;100.00;99383.06;4994090;28;20029;-79
2023/12/02 04:36:57;;;;;;;96.40;42.85;;;;;;;-0.34;100.00;99375.44;4993638;28;20095;-79
2023/12/02 04:39:30;;;;;;;94.30;42.83;;;;;;;-0.33;100.00;99377.81;4982475;28;20518;-80
2023/12/02 04:41:55;;;;;;;99.47;44.67;;;;;;;-0.35;100.00;99369.03;4993202;28;20113;-80
2023/12/02 04:44:25;;;;;;;98.15;44.63;;;;;;;-0.36;100.00;99358.25;4994428;28;20429;-81
2023/12/02 04:46:50;;;;;;;102.53;45.53;;;;;;;-0.52;100.00;99339.41;4994246;28;20050;-80
2023/12/02 04:49:22;;;;;;;85.43;42.38;;;;;;;-0.52;100.00;99333.81;4994060;28;20036;-80
2023/12/02 04:51:52;;;;;;;89.53;40.55;;;;;;;-0.54;100.00;99341.09;4989722;28;20054;-80
2023/12/02 04:54:19;;;;;;;82.72;37.50;;;;;;;-0.60;100.00;99329.63;4993803;28;20061;-80
2023/12/02 04:56:45;;;;;;;80.05;40.78;;;;;;;-0.51;100.00;99346.63;4992981;28;20030;-80
2023/12/02 04:59:11;;;;;;;81.68;37.38;;;;;;;-0.45;100.00;99344.84;5009731;28;20026;-79
2023/12/02 05:01:38;;;;;;;74.47;36.72;;;;;;;-0.59;100.00;99331.22;5026456;28;20047;-79
2023/12/02 05:04:05;;;;;;;80.50;37.97;;;;;;;-0.58;100.00;99320.78;4997518;28;20041;-78
2023/12/02 05:06:31;;;;;;;84.00;36.60;;;;;;;-0.55;100.00;99326.28;4993361;28;20038;-80
2023/12/02 05:08:57;;;;;;;73.75;34.80;;;;;;;-0.46;100.00;99340.47;4994846;28;20026;-79
2023/12/02 05:11:23;;;;;;;78.35;38.05;;;;;;;-0.50;100.00;99341.78;5009819;28;20034;-81
2023/12/02 05:13:54;;;;;;;74.30;34.80;;;;;;;-0.54;100.00;99329.88;4994349;28;20092;-80
2023/12/02 05:16:22;;;;;;;71.65;35.65;;;;;;;-0.38;100.00;99355.91;4977750;28;20044;-81
2023/12/02 05:18:51;;;;;;;67.40;33.42;;;;;;;-0.44;100.00;99343.63;5009728;28;20026;-79
2023/12/02 05:21:18;;;;;;;71.68;35.83;;;;;;;-0.33;100.00;99351.78;4994585;28;20030;-79
2023/12/02 05:23:45;;;;;;;73.63;34.03;;;;;;;-0.46;100.00;99336.88;4994580;28;20046;-80
2023/12/02 05:26:11;;;;;;;63.95;34.15;;;;;;;-0.37;100.00;99351.84;4977022;28;20042;-80
2023/12/02 05:28:38;;;;;;;64.95;33.92;;;;;;;-0.35;100.00;99338.16;4990041;28;20105;-81
2023/12/02 05:31:05;;;;;;;69.78;32.47;;;;;;;-0.56;100.00;99307.88;4957333;28;20046;-80
2023/12/02 05:33:32;;;;;;;67.25;33.40;;;;;;;-0.44;100.00;99332.41;4976879;28;20444;-79
2023/12/02 05:35:59;;;;;;;69.22;35.53;;;;;;;-0.59;100.00;99307.97;4992976;28;20030;-80
2023/12/02 05:38:24;;;;;;;66.55;33.05;;;;;;;-0.60;100.00;99301.56;4994268;28;20097;-80
2023/12/02 05:40:50;;;;;;;71.18;36.92;;;;;;;-0.46;100.00;99328.44;4994440;28;20486;-79
2023/12/02 05:43:16;;;;;;;71.50;36.63;;;;;;;-0.47;100.00;99332.50;4994310;28;20022;-79
2023/12/02 05:45:42;;;;;;;67.80;34.88;;;;;;;-0.56;100.00;99312.69;4996065;28;20056;-79
2023/12/02 05:48:09;;;;;;;72.75;36.78;;;;;;;-0.58;100.00;99315.97;5025455;28;20030;-79
2023/12/02 05:50:35;;;;;;;68.72;31.85;;;;;;;-0.50;100.00;99334.16;4993745;28;20129;-79
2023/12/02 05:53:05;;;;;;;69.20;34.30;;;;;;;-0.48;100.00;99320.50;5009292;28;20085;-81
2023/12/02 05:55:30;;;;;;;73.05;35.10;;;;;;;-0.43;100.00;99333.19;4994105;28;20035;-79
2023/12/02 05:57:55;;;;;;;79.20;35.28;;;;;;;-0.41;100.00;99342.75;4994676;28;20133;-79
2023/12/02 06:00:25;;;;;;;73.95;37.03;;;;;;;-0.46;100.00;99332.06;5025722;28;20073;-79
2023/12/02 06:02:51;;;;;;;78.22;37.80;;;;;;;-0.35;100.00;99332.56;5009170;28;20044;-80
2023/12/02 06:05:17;;;;;;;80.22;37.83;;;;;;;-0.38;100.00;99350.28;4994205;28;20027;-79
2023/12/02 06:07:44;;;;;;;83.82;37.35;;;;;;;-0.37;100.00;99351.06;4992919;28;20025;-79
2023/12/02 06:10:11;;;;;;;89.03;41.63;;;;;;;-0.26;100.00;99359.97;4994194;28;20022;-80
2023/12/02 06:12:37;;;;;;;86.72;40.20;;;;;;;-0.24;100.00;99351.13;5011379;28;20040;-80
2023/12/02 06:15:04;;;;;;;87.97;41.85;;;;;;;-0.19;100.00;99354.19;5015006;28;20041;-81
2023/12/02 06:17:31;;;;;;;86.78;39.05;;;;;;;-0.19;100.00;99348.56;4990950;28;20035;-78
2023/12/02 06:19:59;;;;;;;92.65;41.85;;;;;;;-0.34;100.00;99336.16;4988397;28;20396;-77
2023/12/02 06:22:25;;;;;;;87.40;41.70;;;;;;;-0.30;100.00;99345.25;4994388;28;20022;-77
2023/12/02 06:24:51;;;;;;;82.47;42.35;;;;;;;-0.23;100.00;99359.09;4994716;28;20053;-84
2023/12/02 06:27:17;;;;;;;91.90;43.15;;;;;;;-0.20;100.00;99352.59;4993855;28;20398;-86
2023/12/02 06:29:42;;;;;;;79.93;40.28;;;;;;;-0.18;100.00;99357.78;4993830;28;20105;-85
2023/12/02 06:32:09;;;;;;;87.93;42.35;;;;;;;-0.16;100.00;99356.09;4994121;28;20546;-86
2023/12/02 06:34:34;;;;;;;91.95;40.83;;;;;;;-0.12;100.00;99358.78;4990065;28;20026;-84
2023/12/02 06:37:00;;;;;;;88.15;41.33;;;;;;;-0.15;100.00;99359.69;4989840;28;20019;-84
2023/12/02 06:39:25;;;;;;;95.72;45.25;;;;;;;-0.05;100.00;99381.06;4988731;28;20039;-84
2023/12/02 06:41:50;;;;;;;86.05;42.15;;;;;;;-0.07;100.00;99370.28;4994582;28;20042;-80
2023/12/02 06:44:17;;;;;;;88.38;40.65;;;;;;;-0.07;100.00;99367.47;4997782;28;20029;-80
2023/12/02 06:46:44;;;;;;;96.65;45.50;;;;;;;0.00;100.00;99384.13;4998206;28;20032;-79
2023/12/02 06:49:09;;;;;;;92.13;41.42;;;;;;;-0.17;100.00;99357.31;4998424;28;20085;-80
2023/12/02 06:51:35;;;;;;;86.65;41.72;;;;;;;-0.06;100.00;99365.44;4997709;28;20448;-81
2023/12/02 06:54:00;;;;;;;88.88;42.63;;;;;;;0.07;100.00;99388.75;4997297;28;20054;-79
2023/12/02 06:56:26;;;;;;;93.00;40.00;;;;;;;0.14;100.00;99389.34;4997515;28;20061;-81
2023/12/02 06:58:52;;;;;;;87.50;39.60;;;;;;;0.16;100.00;99392.50;5004108;28;20027;-79
2023/12/02 07:01:26;;;;;;;82.38;39.47;;;;;;;0.24;100.00;99386.66;4960432;28;20318;-78
2023/12/02 07:03:52;;;;;;;77.95;37.78;;;;;;;0.25;100.00;99385.44;4977684;28;20026;-78
2023/12/02 07:06:22;;;;;;;84.30;38.40;;;;;;;0.27;100.00;99383.75;4992696;28;20050;-78
2023/12/02 07:08:49;;;;;;;81.15;39.80;;;;;;;0.36;100.00;99386.72;4984422;28;20018;-77
2023/12/02 07:11:15;;;;;;;73.28;36.50;;;;;;;0.42;100.00;99389.72;5011811;28;20058;-78
2023/12/02 07:13:41;;;;;;;80.78;36.63;;;;;;;0.41;100.00;99397.41;5012210;28;20053;-78
2023/12/02 07:16:08;;;;;;;74.22;37.88;;;;;;;0.42;100.00;99392.53;4995819;28;20051;-76
2023/12/02 07:18:34;;;;;;;76.20;36.38;;;;;;;0.48;100.00;99396.38;4995587;28;20057;-77
2023/12/02 07:21:00;;;;;;;74.40;38.08;;;;;;;0.49;100.00;99407.19;4996990;28;20061;-81
2023/12/02 07:23:28;;;;;;;72.95;38.92;;;;;;;0.57;100.00;99402.13;4996043;28;20053;-78
2023/12/02 07:25:55;;;;;;;72.35;37.90;;;;;;;0.59;100.00;99408.09;4979379;28;20041;-76
2023/12/02 07:28:21;;;;;;;72.28;38.10;;;;;;;0.62;100.00;99395.97;4979617;28;20030;-78
2023/12/02 07:30:48;;;;;;;74.40;36.20;;;;;;;0.75;100.00;99398.81;5028558;28;20399;-75
2023/12/02 07:33:15;;;;;;;78.93;38.35;;;;;;;0.75;100.00;99396.00;5011764;28;20026;-77
2023/12/02 07:35:42;;;;;;;72.68;34.88;;;;;;;0.82;100.00;99413.41;4996857;28;20031;-77
2023/12/02 07:38:09;;;;;;;65.40;35.65;;;;;;;0.82;100.00;99413.41;4996732;28;20460;-79
2023/12/02 07:40:36;;;;;;;67.20;33.65;;;;;;;0.85;100.00;99428.63;4977263;28;20033;-77
2023/12/02 07:43:10;;;;;;;64.95;35.40;;;;;;;0.88;100.00;99430.53;4977133;28;20026;-79
2023/12/02 07:45:42;;;;;;;68.32;36.15;;;;;;;0.88;100.00;99430.53;4995210;28;20038;-79
2023/12/02 07:48:10;;;;;;;73.70;36.58;;;;;;;0.92;100.00;99436.81;4996506;28;20039;-78
2023/12/02 07:50:37;;;;;;;66.97;35.55;;;;;;;0.96;100.00;99448.78;5010817;28;20574;-78
2023/12/02 07:53:05;;;;;;;73.45;36.70;;;;;;;0.98;100.00;99447.06;4994222;28;20022;-76
2023/12/02 07:55:31;;;;;;;76.10;36.78;;;;;;;1.02;100.00;99442.13;5008461;28;20113;-76
2023/12/02 07:57:56;;;;;;;73.20;37.78;;;;;;;1.04;100.00;99442.47;4994777;28;20122;-75
2023/12/02 08:00:23;;;;;;;68.40;35.20;;;;;;;1.12;100.00;99447.84;4974990;28;20045;-76
2023/12/02 08:02:48;;;;;;;70.03;35.55;;;;;;;1.25;100.00;99448.66;4976721;28;20058;-77
2023/12/02 08:05:14;;;;;;;69.85;34.22;;;;;;;1.16;100.00;99428.88;4992327;28;20088;-79
2023/12/02 08:07:41;;;;;;;75.85;36.42;;;;;;;1.28;100.00;99430.88;4994656;28;20105;-77
2023/12/02 08:10:09;;;;;;;74.80;34.85;;;;;;;1.45;100.00;99452.81;4996501;28;20061;-77
2023/12/02 08:12:36;;;;;;;72.53;35.72;;;;;;;1.52;100.00;99451.78;4996655;28;20030;-77
2023/12/02 08:15:03;;;;;;;64.45;35.20;;;;;;;1.57;100.00;99447.63;4994611;28;20054;-79
2023/12/02 08:17:28;;;;;;;69.45;34.33;;;;;;;1.62;100.00;99444.22;4994732;28;20026;-77
2023/12/02 08:19:56;;;;;;;72.18;36.75;;;;;;;1.56;100.00;99431.97;4995792;28;20076;-78
2023/12/02 08:22:24;;;;;;;76.40;41.63;;;;;;;1.67;100.00;99438.81;4995723;28;20026;-77
2023/12/02 08:25:05;;;;;;;72.50;36.85;;;;;;;1.79;100.00;99423.94;4996015;28;20018;-79
2023/12/02 08:27:33;;;;;;;73.95;37.97;;;;;;;1.93;100.00;99419.84;4994642;28;20030;-81
2023/12/02 08:29:59;;;;;;;71.60;34.90;;;;;;;2.03;100.00;99418.66;4995431;28;20061;-78
2023/12/02 08:32:26;;;;;;;64.70;35.22;;;;;;;2.02;100.00;99431.19;4995695;28;20030;-80
2023/12/02 08:34:52;;;;;;;69.05;35.85;;;;;;;2.00;100.00;99436.47;4995211;28;20467;-78
2023/12/02 08:37:18;;;;;;;71.30;35.83;;;;;;;1.96;100.00;99435.81;4995542;28;20026;-77
2023/12/02 08:39:46;;;;;;;70.53;36.00;;;;;;;2.15;100.00;99443.19;4993211;28;20402;-78
2023/12/02 08:42:13;;;;;;;66.32;34.25;;;;;;;2.31;100.00;99457.09;4995486;28;20033;-78
2023/12/02 08:44:39;;;;;;;74.05;36.83;;;;;;;2.46;100.00;99451.72;4998645;28;20048;-77
2023/12/02 08:47:06;;;;;;;68.70;33.92;;;;;;;2.60;100.00;99450.41;4995356;28;20125;-78
2023/12/02 08:49:33;;;;;;;71.82;34.38;;;;;;;2.77;100.00;99454.63;4995219;28;20089;-78
2023/12/02 08:51:59;;;;;;;69.30;34.75;;;;;;;2.88;100.00;99457.84;4995084;28;20058;-76
2023/12/02 08:54:25;;;;;;;65.72;33.85;;;;;;;3.04;100.00;99473.72;4994982;28;20476;-75
2023/12/02 08:56:51;;;;;;;69.22;35.40;;;;;;;3.03;100.00;99461.66;4997985;28;20121;-77
2023/12/02 08:59:17;;;;;;;64.40;34.22;;;;;;;2.92;100.00;99444.38;4993186;28;20045;-79
2023/12/02 09:01:44;;;;;;;63.45;33.58;;;;;;;2.82;100.00;99439.91;4993630;28;20550;-79
2023/12/02 09:04:11;;;;;;;69.30;34.05;;;;;;;2.73;100.00;99439.88;4993087;28;20034;-77
2023/12/02 09:06:38;;;;;;;64.22;33.42;;;;;;;2.62;100.00;99431.81;4995238;28;20369;-78
2023/12/02 09:09:04;;;;;;;64.85;34.63;;;;;;;2.62;100.00;99433.84;4996089;28;20030;-82
2023/12/02 09:11:32;;;;;;;65.03;32.92;;;;;;;2.64;100.00;99453.88;4993917;28;20057;-81
2023/12/02 09:13:58;;;;;;;66.47;35.47;;;;;;;2.58;100.00;99450.09;4974651;28;20464;-79
2023/12/02 09:16:28;;;;;;;63.35;34.40;;;;;;;2.61;100.00;99458.44;4957847;28;20121;-79
2023/12/02 09:18:55;;;;;;;67.57;34.17;;;;;;;2.67;100.00;99467.88;4982407;28;20117;-78
2023/12/02 09:21:44;;;;;;;70.65;34.30;;;;;;;2.70;100.00;99480.25;5009726;28;20061;-79
2023/12/02 09:24:38;;;;;;;61.80;32.85;;;;;;;2.65;100.00;99492.13;4993299;28;20416;-79
2023/12/02 09:27:39;;;;;;;64.82;33.92;;;;;;;2.68;100.00;99482.78;4993192;28;20033;-79
2023/12/02 09:30:08;;;;;;;68.10;33.93;;;;;;;2.83;100.00;99468.91;5009512;28;20399;-78
2023/12/02 09:32:53;;;;;;;63.83;32.95;;;;;;;3.00;100.00;99484.38;4993462;28;20293;-77
2023/12/02 09:35:21;;;;;;;65.68;34.10;;;;;;;3.10;100.00;99471.88;4994608;28;20038;-76
2023/12/02 09:37:57;;;;;;;63.72;33.92;;;;;;;3.19;100.00;99469.91;4994637;28;20040;-78
2023/12/02 09:40:27;;;;;;;67.15;33.35;;;;;;;3.21;100.00;99461.75;4994796;28;20034;-77
2023/12/02 09:43:17;;;;;;;66.95;33.58;;;;;;;3.25;100.00;99449.53;4994746;28;20030;-77
2023/12/02 09:46:11;;;;;;;61.65;32.65;;;;;;;3.07;100.00;99438.97;4994401;28;20125;-78
2023/12/02 09:49:05;;;;;;;67.15;34.08;;;;;;;2.92;100.00;99449.22;4994774;28;20042;-78
2023/12/02 09:51:49;;;;;;;68.30;33.50;;;;;;;2.88;100.00;99471.16;4990716;28;20050;-77
2023/12/02 09:54:57;;;;;;;67.35;33.05;;;;;;;2.87;100.00;99473.19;4994751;28;20081;-77
2023/12/02 09:57:34;;;;;;;62.30;33.30;;;;;;;2.89;100.00;99453.75;4994804;28;20113;-79
2023/12/02 10:00:09;;;;;;;71.85;36.67;;;;;;;2.98;100.00;99450.19;4993456;28;20479;-78
2023/12/02 10:02:52;;;;;;;75.05;36.85;;;;;;;3.06;100.00;99420.44;4994696;28;20491;-77
2023/12/02 10:05:19;;;;;;;64.45;34.70;;;;;;;3.22;100.00;99412.53;4994299;28;20467;-78
2023/12/02 10:08:03;;;;;;;71.57;34.25;;;;;;;3.30;100.00;99412.22;4975491;28;20030;-77
2023/12/02 10:10:52;;;;;;;67.60;36.15;;;;;;;3.38;100.00;99394.53;4993810;28;20019;-78
2023/12/02 10:13:54;;;;;;;71.03;37.13;;;;;;;3.60;100.00;99385.97;4978190;28;20030;-77
2023/12/02 10:16:23;;;;;;;71.97;37.55;;;;;;;3.79;100.00;99387.56;4971968;28;20141;-78
2023/12/02 10:19:16;;;;;;;68.93;36.60;;;;;;;3.96;100.00;99399.41;4975956;28;20049;-78
2023/12/02 10:21:44;;;;;;;66.85;35.35;;;;;;;4.19;100.00;99412.91;4993966;28;20030;-76
2023/12/02 10:24:12;;;;;;;74.05;37.42;;;;;;;4.35;100.00;99425.94;4993873;28;20037;-78
2023/12/02 10:26:46;;;;;;;71.40;38.55;;;;;;;4.34;100.00;99430.03;4960845;28;20042;-78
2023/12/02 10:29:28;;;;;;;75.53;38.42;;;;;;;4.29;100.00;99436.31;4998917;28;20038;-79
2023/12/02 10:32:24;;;;;;;79.65;39.38;;;;;;;4.15;100.00;99419.97;5001693;28;20054;-78
2023/12/02 10:35:10;;;;;;;90.07;46.20;;;;;;;4.11;100.00;99441.97;5012511;28;20034;-78
2023/12/02 10:37:40;;;;;;;90.55;45.25;;;;;;;3.97;100.00;99446.19;4995576;28;20383;-77
2023/12/02 10:40:23;;;;;;;91.90;46.20;;;;;;;3.81;100.00;99463.38;4993111;28;20057;-80
2023/12/02 10:43:15;;;;;;;86.22;43.83;;;;;;;3.64;100.00;99477.78;4993126;28;20022;-78
2023/12/02 10:45:41;;;;;;;82.45;42.53;;;;;;;3.44;100.00;99499.97;4994727;28;20022;-85
2023/12/02 10:48:11;;;;;;;95.32;47.90;;;;;;;3.33;100.00;99499.59;4984062;28;20113;-84
2023/12/02 10:50:39;;;;;;;96.45;47.13;;;;;;;3.23;100.00;99498.78;5029117;28;20046;-89
2023/12/02 10:53:05;;;;;;;107.05;52.65;;;;;;;3.11;100.00;99496.03;5013929;28;20034;-85
2023/12/02 10:55:35;;;;;;;102.40;48.88;;;;;;;3.08;100.00;99452.59;5012116;28;20038;-82
2023/12/02 10:58:04;;;;;;;93.03;46.83;;;;;;;3.13;100.00;99448.41;4996534;28;20064;-84
2023/12/02 11:00:42;;;;;;;88.93;45.90;;;;;;;3.18;100.00;99450.63;4997144;28;20034;-88
2023/12/02 11:03:51;;;;;;;85.95;43.42;;;;;;;3.22;100.00;99437.16;5014588;28;20022;-83
2023/12/02 11:06:24;;;;;;;85.32;43.05;;;;;;;3.15;100.00;99409.97;4978971;28;20038;-79
2023/12/02 11:09:11;;;;;;;77.85;41.05;;;;;;;3.28;100.00;99414.75;4996975;28;20058;-83
2023/12/02 11:12:06;;;;;;;94.63;44.00;;;;;;;3.16;100.00;99397.44;4992507;28;20043;-78
2023/12/02 11:14:39;;;;;;;84.10;40.72;;;;;;;3.11;100.00;99405.72;5004993;28;20047;-81
2023/12/02 11:17:30;;;;;;;83.40;42.45;;;;;;;3.04;100.00;99432.19;4990367;28;20039;-81
2023/12/02 11:20:20;;;;;;;84.22;44.25;;;;;;;3.03;100.00;99427.03;4974174;28;20054;-79
2023/12/02 11:23:06;;;;;;;87.88;43.60;;;;;;;3.08;100.00;99410.25;5005662;28;20023;-80